sensor_id;sensor_type;location;lat;lon;timestamp;temperature;humidity
27072;DHT22;14613;46.308;25.288;2023-04-25T00:01:06;13.90;65.30
27072;DHT22;14613;46.308;25.288;2023-04-25T00:03:34;13.80;65.40
27072;DHT22;14613;46.308;25.288;2023-04-25T00:06:00;13.90;65.40
27072;DHT22;14613;46.308;25.288;2023-04-25T00:08:28;13.90;65.40
27072;DHT22;14613;46.308;25.288;2023-04-25T00:10:54;13.90;65.30
27072;DHT22;14613;46.308;25.288;2023-04-25T00:13:20;13.90;65.30
27072;DHT22;14613;46.308;25.288;2023-04-25T00:15:47;13.90;65.30
27072;DHT22;14613;46.308;25.288;2023-04-25T00:18:14;13.90;65.20
27072;DHT22;14613;46.308;25.288;2023-04-25T00:20:40;13.90;65.40
27072;DHT22;14613;46.308;25.288;2023-04-25T00:23:10;13.90;65.40
27072;DHT22;14613;46.308;25.288;2023-04-25T00:25:35;13.80;65.60
27072;DHT22;14613;46.308;25.288;2023-04-25T00:28:01;13.80;65.70
27072;DHT22;14613;46.308;25.288;2023-04-25T00:30:27;13.70;65.70
27072;DHT22;14613;46.308;25.288;2023-04-25T00:32:53;13.70;65.80
27072;DHT22;14613;46.308;25.288;2023-04-25T00:35:19;13.70;65.80
27072;DHT22;14613;46.308;25.288;2023-04-25T00:37:45;13.70;65.80
27072;DHT22;14613;46.308;25.288;2023-04-25T00:40:11;13.70;65.90
27072;DHT22;14613;46.308;25.288;2023-04-25T00:42:37;13.70;66.00
27072;DHT22;14613;46.308;25.288;2023-04-25T00:45:05;13.60;66.00
27072;DHT22;14613;46.308;25.288;2023-04-25T00:47:33;13.60;66.20
27072;DHT22;14613;46.308;25.288;2023-04-25T00:49:59;13.60;66.50
27072;DHT22;14613;46.308;25.288;2023-04-25T00:52:25;13.50;66.90
27072;DHT22;14613;46.308;25.288;2023-04-25T00:54:51;13.40;67.50
27072;DHT22;14613;46.308;25.288;2023-04-25T00:57:17;13.40;67.70
27072;DHT22;14613;46.308;25.288;2023-04-25T00:59:45;13.40;67.70
27072;DHT22;14613;46.308;25.288;2023-04-25T01:02:12;13.40;67.70
27072;DHT22;14613;46.308;25.288;2023-04-25T01:04:39;13.40;67.60
27072;DHT22;14613;46.308;25.288;2023-04-25T01:07:05;13.40;67.50
27072;DHT22;14613;46.308;25.288;2023-04-25T01:09:30;13.40;67.40
27072;DHT22;14613;46.308;25.288;2023-04-25T01:11:59;13.50;67.40
27072;DHT22;14613;46.308;25.288;2023-04-25T01:14:26;13.50;67.40
27072;DHT22;14613;46.308;25.288;2023-04-25T01:16:52;13.50;67.20
27072;DHT22;14613;46.308;25.288;2023-04-25T01:19:21;13.50;67.20
27072;DHT22;14613;46.308;25.288;2023-04-25T01:21:47;13.50;67.00
27072;DHT22;14613;46.308;25.288;2023-04-25T01:24:13;13.60;67.10
27072;DHT22;14613;46.308;25.288;2023-04-25T01:26:40;13.60;67.00
27072;DHT22;14613;46.308;25.288;2023-04-25T01:29:09;13.60;67.00
27072;DHT22;14613;46.308;25.288;2023-04-25T01:31:36;13.60;67.00
27072;DHT22;14613;46.308;25.288;2023-04-25T01:34:02;13.60;67.00
27072;DHT22;14613;46.308;25.288;2023-04-25T01:36:28;13.60;67.00
27072;DHT22;14613;46.308;25.288;2023-04-25T01:38:54;13.60;66.90
27072;DHT22;14613;46.308;25.288;2023-04-25T01:41:20;13.60;66.90
27072;DHT22;14613;46.308;25.288;2023-04-25T01:43:49;13.60;66.90
27072;DHT22;14613;46.308;25.288;2023-04-25T01:46:14;13.60;66.90
27072;DHT22;14613;46.308;25.288;2023-04-25T01:48:40;13.60;66.90
27072;DHT22;14613;46.308;25.288;2023-04-25T01:51:06;13.60;66.90
27072;DHT22;14613;46.308;25.288;2023-04-25T01:53:32;13.60;66.90
27072;DHT22;14613;46.308;25.288;2023-04-25T01:55:58;13.60;67.00
27072;DHT22;14613;46.308;25.288;2023-04-25T01:58:24;13.60;67.00
27072;DHT22;14613;46.308;25.288;2023-04-25T02:00:50;13.60;67.00
27072;DHT22;14613;46.308;25.288;2023-04-25T02:03:15;13.50;67.10
27072;DHT22;14613;46.308;25.288;2023-04-25T02:05:41;13.50;67.20
27072;DHT22;14613;46.308;25.288;2023-04-25T02:08:08;13.50;67.40
27072;DHT22;14613;46.308;25.288;2023-04-25T02:10:34;13.40;67.50
27072;DHT22;14613;46.308;25.288;2023-04-25T02:13:01;13.40;67.60
27072;DHT22;14613;46.308;25.288;2023-04-25T02:15:26;13.40;67.70
27072;DHT22;14613;46.308;25.288;2023-04-25T02:17:52;13.40;67.70
27072;DHT22;14613;46.308;25.288;2023-04-25T02:20:20;13.40;67.70
27072;DHT22;14613;46.308;25.288;2023-04-25T02:22:47;13.40;67.80
27072;DHT22;14613;46.308;25.288;2023-04-25T02:25:12;13.30;67.80
27072;DHT22;14613;46.308;25.288;2023-04-25T02:27:39;13.40;67.90
27072;DHT22;14613;46.308;25.288;2023-04-25T02:30:05;13.30;67.80
27072;DHT22;14613;46.308;25.288;2023-04-25T02:32:33;13.40;67.90
27072;DHT22;14613;46.308;25.288;2023-04-25T02:35:00;13.40;67.90
27072;DHT22;14613;46.308;25.288;2023-04-25T02:37:39;13.40;67.90
27072;DHT22;14613;46.308;25.288;2023-04-25T02:40:05;13.40;67.80
27072;DHT22;14613;46.308;25.288;2023-04-25T02:42:32;13.40;67.80
27072;DHT22;14613;46.308;25.288;2023-04-25T02:44:58;13.40;67.70
27072;DHT22;14613;46.308;25.288;2023-04-25T02:47:24;13.50;67.80
27072;DHT22;14613;46.308;25.288;2023-04-25T02:49:49;13.50;67.80
27072;DHT22;14613;46.308;25.288;2023-04-25T02:52:15;13.50;67.70
27072;DHT22;14613;46.308;25.288;2023-04-25T02:54:41;13.50;67.70
27072;DHT22;14613;46.308;25.288;2023-04-25T02:57:07;13.40;67.80
27072;DHT22;14613;46.308;25.288;2023-04-25T02:59:33;13.30;68.10
27072;DHT22;14613;46.308;25.288;2023-04-25T03:01:59;13.20;68.50
27072;DHT22;14613;46.308;25.288;2023-04-25T03:04:35;13.10;68.70
27072;DHT22;14613;46.308;25.288;2023-04-25T03:07:24;13.10;68.90
27072;DHT22;14613;46.308;25.288;2023-04-25T03:10:19;13.10;68.90
27072;DHT22;14613;46.308;25.288;2023-04-25T03:13:25;13.10;69.00
27072;DHT22;14613;46.308;25.288;2023-04-25T03:15:51;13.00;69.10
27072;DHT22;14613;46.308;25.288;2023-04-25T03:18:17;13.10;69.10
27072;DHT22;14613;46.308;25.288;2023-04-25T03:20:43;13.10;69.10
27072;DHT22;14613;46.308;25.288;2023-04-25T03:23:09;13.10;69.10
27072;DHT22;14613;46.308;25.288;2023-04-25T03:25:35;13.10;69.20
27072;DHT22;14613;46.308;25.288;2023-04-25T03:28:06;13.10;69.20
27072;DHT22;14613;46.308;25.288;2023-04-25T03:30:35;13.10;69.20
27072;DHT22;14613;46.308;25.288;2023-04-25T03:33:01;13.10;69.20
27072;DHT22;14613;46.308;25.288;2023-04-25T03:35:27;13.20;69.20
27072;DHT22;14613;46.308;25.288;2023-04-25T03:37:52;13.20;69.00
27072;DHT22;14613;46.308;25.288;2023-04-25T03:40:18;13.30;69.10
27072;DHT22;14613;46.308;25.288;2023-04-25T03:42:44;13.30;68.90
27072;DHT22;14613;46.308;25.288;2023-04-25T03:45:10;13.30;68.70
27072;DHT22;14613;46.308;25.288;2023-04-25T03:47:36;13.40;68.80
27072;DHT22;14613;46.308;25.288;2023-04-25T03:50:02;13.40;68.80
27072;DHT22;14613;46.308;25.288;2023-04-25T03:52:28;13.40;68.70
27072;DHT22;14613;46.308;25.288;2023-04-25T03:54:54;13.40;68.90
27072;DHT22;14613;46.308;25.288;2023-04-25T03:57:20;13.40;68.90
27072;DHT22;14613;46.308;25.288;2023-04-25T03:59:45;13.30;69.00
27072;DHT22;14613;46.308;25.288;2023-04-25T04:02:11;13.30;69.20
27072;DHT22;14613;46.308;25.288;2023-04-25T04:04:37;13.30;69.30
27072;DHT22;14613;46.308;25.288;2023-04-25T04:07:03;13.30;69.60
27072;DHT22;14613;46.308;25.288;2023-04-25T04:09:29;13.20;69.80
27072;DHT22;14613;46.308;25.288;2023-04-25T04:11:55;13.20;70.00
27072;DHT22;14613;46.308;25.288;2023-04-25T04:14:20;13.20;70.30
27072;DHT22;14613;46.308;25.288;2023-04-25T04:16:46;13.10;70.40
27072;DHT22;14613;46.308;25.288;2023-04-25T04:19:12;13.10;70.60
27072;DHT22;14613;46.308;25.288;2023-04-25T04:21:38;13.20;70.70
27072;DHT22;14613;46.308;25.288;2023-04-25T04:24:04;13.10;70.90
27072;DHT22;14613;46.308;25.288;2023-04-25T04:26:32;13.10;71.00
27072;DHT22;14613;46.308;25.288;2023-04-25T04:29:00;13.10;71.20
27072;DHT22;14613;46.308;25.288;2023-04-25T04:31:25;13.10;71.20
27072;DHT22;14613;46.308;25.288;2023-04-25T04:33:51;13.20;71.30
27072;DHT22;14613;46.308;25.288;2023-04-25T04:36:17;13.10;71.40
27072;DHT22;14613;46.308;25.288;2023-04-25T04:38:47;13.10;71.50
27072;DHT22;14613;46.308;25.288;2023-04-25T04:41:13;13.10;71.70
27072;DHT22;14613;46.308;25.288;2023-04-25T04:43:39;13.10;71.80
27072;DHT22;14613;46.308;25.288;2023-04-25T04:46:05;13.10;71.90
27072;DHT22;14613;46.308;25.288;2023-04-25T04:48:32;13.10;72.10
27072;DHT22;14613;46.308;25.288;2023-04-25T04:51:00;13.00;72.20
27072;DHT22;14613;46.308;25.288;2023-04-25T04:53:26;13.10;72.30
27072;DHT22;14613;46.308;25.288;2023-04-25T04:55:52;13.10;72.30
27072;DHT22;14613;46.308;25.288;2023-04-25T04:58:18;13.20;72.20
27072;DHT22;14613;46.308;25.288;2023-04-25T05:00:45;13.20;72.20
27072;DHT22;14613;46.308;25.288;2023-04-25T05:03:10;13.30;72.20
27072;DHT22;14613;46.308;25.288;2023-04-25T05:05:37;13.40;72.10
27072;DHT22;14613;46.308;25.288;2023-04-25T05:08:06;13.40;71.90
27072;DHT22;14613;46.308;25.288;2023-04-25T05:10:31;13.50;71.80
27072;DHT22;14613;46.308;25.288;2023-04-25T05:12:57;13.60;71.70
27072;DHT22;14613;46.308;25.288;2023-04-25T05:15:23;13.50;71.70
27072;DHT22;14613;46.308;25.288;2023-04-25T05:17:49;13.60;71.80
27072;DHT22;14613;46.308;25.288;2023-04-25T05:20:15;13.70;71.70
27072;DHT22;14613;46.308;25.288;2023-04-25T05:22:41;13.70;71.60
27072;DHT22;14613;46.308;25.288;2023-04-25T05:25:08;13.70;71.60
27072;DHT22;14613;46.308;25.288;2023-04-25T05:27:34;13.70;71.80
27072;DHT22;14613;46.308;25.288;2023-04-25T05:30:00;13.80;71.90
27072;DHT22;14613;46.308;25.288;2023-04-25T05:32:26;13.80;71.90
27072;DHT22;14613;46.308;25.288;2023-04-25T05:34:52;13.90;71.90
27072;DHT22;14613;46.308;25.288;2023-04-25T05:37:18;14.00;71.80
27072;DHT22;14613;46.308;25.288;2023-04-25T05:39:43;14.20;71.70
27072;DHT22;14613;46.308;25.288;2023-04-25T05:42:09;14.30;71.60
27072;DHT22;14613;46.308;25.288;2023-04-25T05:44:35;14.40;71.40
27072;DHT22;14613;46.308;25.288;2023-04-25T05:47:01;14.60;71.30
27072;DHT22;14613;46.308;25.288;2023-04-25T05:49:28;14.70;71.10
27072;DHT22;14613;46.308;25.288;2023-04-25T05:51:53;14.70;70.80
27072;DHT22;14613;46.308;25.288;2023-04-25T05:54:20;14.80;70.80
27072;DHT22;14613;46.308;25.288;2023-04-25T05:56:45;14.80;70.80
27072;DHT22;14613;46.308;25.288;2023-04-25T05:59:11;14.80;70.80
27072;DHT22;14613;46.308;25.288;2023-04-25T06:01:37;14.80;70.80
27072;DHT22;14613;46.308;25.288;2023-04-25T06:04:03;14.80;70.60
27072;DHT22;14613;46.308;25.288;2023-04-25T06:06:29;14.90;70.60
27072;DHT22;14613;46.308;25.288;2023-04-25T06:08:55;14.90;70.50
27072;DHT22;14613;46.308;25.288;2023-04-25T06:11:21;15.00;70.50
27072;DHT22;14613;46.308;25.288;2023-04-25T06:13:47;15.00;70.60
27072;DHT22;14613;46.308;25.288;2023-04-25T06:16:13;15.00;70.50
27072;DHT22;14613;46.308;25.288;2023-04-25T06:18:38;15.00;70.60
27072;DHT22;14613;46.308;25.288;2023-04-25T06:21:04;15.10;70.60
27072;DHT22;14613;46.308;25.288;2023-04-25T06:23:30;15.20;70.60
27072;DHT22;14613;46.308;25.288;2023-04-25T06:25:56;15.30;70.50
27072;DHT22;14613;46.308;25.288;2023-04-25T06:28:22;15.50;70.40
27072;DHT22;14613;46.308;25.288;2023-04-25T06:30:48;15.60;70.20
27072;DHT22;14613;46.308;25.288;2023-04-25T06:33:14;15.80;70.00
27072;DHT22;14613;46.308;25.288;2023-04-25T06:35:40;16.00;69.80
27072;DHT22;14613;46.308;25.288;2023-04-25T06:38:06;16.00;70.30
27072;DHT22;14613;46.308;25.288;2023-04-25T06:40:32;16.10;69.30
27072;DHT22;14613;46.308;25.288;2023-04-25T06:42:58;16.20;69.20
27072;DHT22;14613;46.308;25.288;2023-04-25T06:45:23;16.40;69.10
27072;DHT22;14613;46.308;25.288;2023-04-25T06:47:49;16.40;68.70
27072;DHT22;14613;46.308;25.288;2023-04-25T06:50:15;16.50;68.70
27072;DHT22;14613;46.308;25.288;2023-04-25T06:52:41;16.70;68.70
27072;DHT22;14613;46.308;25.288;2023-04-25T06:55:07;16.90;68.80
27072;DHT22;14613;46.308;25.288;2023-04-25T06:57:33;17.10;68.70
27072;DHT22;14613;46.308;25.288;2023-04-25T06:59:59;17.30;68.40
27072;DHT22;14613;46.308;25.288;2023-04-25T07:02:25;17.60;68.30
27072;DHT22;14613;46.308;25.288;2023-04-25T07:04:51;17.80;68.30
27072;DHT22;14613;46.308;25.288;2023-04-25T07:07:16;18.20;68.30
27072;DHT22;14613;46.308;25.288;2023-04-25T07:09:42;18.50;67.80
27072;DHT22;14613;46.308;25.288;2023-04-25T07:12:08;18.90;67.50
27072;DHT22;14613;46.308;25.288;2023-04-25T07:14:34;19.20;66.70
27072;DHT22;14613;46.308;25.288;2023-04-25T07:17:00;19.60;66.50
27072;DHT22;14613;46.308;25.288;2023-04-25T07:19:25;20.00;66.00
27072;DHT22;14613;46.308;25.288;2023-04-25T07:21:52;20.40;65.50
27072;DHT22;14613;46.308;25.288;2023-04-25T07:24:18;20.80;64.60
27072;DHT22;14613;46.308;25.288;2023-04-25T07:26:44;21.00;63.00
27072;DHT22;14613;46.308;25.288;2023-04-25T07:29:11;21.00;62.30
27072;DHT22;14613;46.308;25.288;2023-04-25T07:31:36;21.00;62.40
27072;DHT22;14613;46.308;25.288;2023-04-25T07:34:02;21.10;62.40
27072;DHT22;14613;46.308;25.288;2023-04-25T07:36:28;21.20;62.20
27072;DHT22;14613;46.308;25.288;2023-04-25T07:38:54;21.30;62.00
27072;DHT22;14613;46.308;25.288;2023-04-25T07:41:21;21.40;61.60
27072;DHT22;14613;46.308;25.288;2023-04-25T07:43:47;21.50;61.20
27072;DHT22;14613;46.308;25.288;2023-04-25T07:46:13;21.60;60.90
27072;DHT22;14613;46.308;25.288;2023-04-25T07:48:38;21.60;60.80
27072;DHT22;14613;46.308;25.288;2023-04-25T07:51:04;21.70;60.50
27072;DHT22;14613;46.308;25.288;2023-04-25T07:53:30;21.80;60.30
27072;DHT22;14613;46.308;25.288;2023-04-25T07:55:57;21.80;60.00
27072;DHT22;14613;46.308;25.288;2023-04-25T07:58:23;21.80;59.70
27072;DHT22;14613;46.308;25.288;2023-04-25T08:00:49;21.80;59.50
27072;DHT22;14613;46.308;25.288;2023-04-25T08:03:15;21.80;59.50
27072;DHT22;14613;46.308;25.288;2023-04-25T08:05:41;21.80;59.50
27072;DHT22;14613;46.308;25.288;2023-04-25T08:08:07;21.80;59.40
27072;DHT22;14613;46.308;25.288;2023-04-25T08:10:33;21.70;58.80
27072;DHT22;14613;46.308;25.288;2023-04-25T08:12:59;21.60;58.30
27072;DHT22;14613;46.308;25.288;2023-04-25T08:15:25;21.30;58.20
27072;DHT22;14613;46.308;25.288;2023-04-25T08:17:51;21.10;58.50
27072;DHT22;14613;46.308;25.288;2023-04-25T08:20:17;21.00;58.80
27072;DHT22;14613;46.308;25.288;2023-04-25T08:22:43;21.00;59.00
27072;DHT22;14613;46.308;25.288;2023-04-25T08:25:09;21.10;59.10
27072;DHT22;14613;46.308;25.288;2023-04-25T08:27:35;21.20;59.10
27072;DHT22;14613;46.308;25.288;2023-04-25T08:30:03;21.30;59.10
27072;DHT22;14613;46.308;25.288;2023-04-25T08:32:29;21.40;59.10
27072;DHT22;14613;46.308;25.288;2023-04-25T08:34:55;21.50;59.00
27072;DHT22;14613;46.308;25.288;2023-04-25T08:37:21;21.60;58.70
27072;DHT22;14613;46.308;25.288;2023-04-25T08:39:47;21.70;58.20
27072;DHT22;14613;46.308;25.288;2023-04-25T08:42:15;21.70;58.10
27072;DHT22;14613;46.308;25.288;2023-04-25T08:44:41;21.80;58.10
27072;DHT22;14613;46.308;25.288;2023-04-25T08:47:07;21.90;58.00
27072;DHT22;14613;46.308;25.288;2023-04-25T08:49:33;22.10;58.00
27072;DHT22;14613;46.308;25.288;2023-04-25T08:52:02;22.20;57.90
27072;DHT22;14613;46.308;25.288;2023-04-25T08:54:31;22.30;57.80
27072;DHT22;14613;46.308;25.288;2023-04-25T08:57:01;22.40;57.50
27072;DHT22;14613;46.308;25.288;2023-04-25T08:59:30;22.50;57.40
27072;DHT22;14613;46.308;25.288;2023-04-25T09:01:57;22.50;57.10
27072;DHT22;14613;46.308;25.288;2023-04-25T09:04:23;22.60;57.10
27072;DHT22;14613;46.308;25.288;2023-04-25T09:06:51;22.60;57.00
27072;DHT22;14613;46.308;25.288;2023-04-25T09:09:17;22.70;56.70
27072;DHT22;14613;46.308;25.288;2023-04-25T09:11:43;22.50;56.10
27072;DHT22;14613;46.308;25.288;2023-04-25T09:14:20;22.30;56.30
27072;DHT22;14613;46.308;25.288;2023-04-25T09:19:30;22.10;56.60
27072;DHT22;14613;46.308;25.288;2023-04-25T09:21:57;22.00;56.70
27072;DHT22;14613;46.308;25.288;2023-04-25T09:24:40;21.90;56.50
27072;DHT22;14613;46.308;25.288;2023-04-25T09:27:17;21.90;56.60
27072;DHT22;14613;46.308;25.288;2023-04-25T09:29:43;21.90;56.50
27072;DHT22;14613;46.308;25.288;2023-04-25T09:32:18;21.90;56.50
27072;DHT22;14613;46.308;25.288;2023-04-25T09:34:50;21.90;56.30
27072;DHT22;14613;46.308;25.288;2023-04-25T09:37:20;21.80;56.20
27072;DHT22;14613;46.308;25.288;2023-04-25T09:39:50;21.80;56.40
27072;DHT22;14613;46.308;25.288;2023-04-25T09:42:17;21.80;56.30
27072;DHT22;14613;46.308;25.288;2023-04-25T09:44:46;21.80;56.30
27072;DHT22;14613;46.308;25.288;2023-04-25T09:47:14;21.90;56.40
27072;DHT22;14613;46.308;25.288;2023-04-25T09:49:42;22.00;56.10
27072;DHT22;14613;46.308;25.288;2023-04-25T09:52:09;21.90;56.00
27072;DHT22;14613;46.308;25.288;2023-04-25T09:54:38;21.90;56.00
27072;DHT22;14613;46.308;25.288;2023-04-25T09:57:13;22.10;56.10
27072;DHT22;14613;46.308;25.288;2023-04-25T09:59:43;22.30;56.20
27072;DHT22;14613;46.308;25.288;2023-04-25T10:02:11;22.50;56.10
27072;DHT22;14613;46.308;25.288;2023-04-25T10:04:38;22.70;56.20
27072;DHT22;14613;46.308;25.288;2023-04-25T10:07:08;22.90;56.00
27072;DHT22;14613;46.308;25.288;2023-04-25T10:09:37;23.20;55.80
27072;DHT22;14613;46.308;25.288;2023-04-25T10:12:06;23.50;55.50
27072;DHT22;14613;46.308;25.288;2023-04-25T10:14:33;23.80;55.00
27072;DHT22;14613;46.308;25.288;2023-04-25T10:16:59;24.20;54.70
27072;DHT22;14613;46.308;25.288;2023-04-25T10:19:26;24.40;54.10
27072;DHT22;14613;46.308;25.288;2023-04-25T10:24:21;24.50;52.70
27072;DHT22;14613;46.308;25.288;2023-04-25T10:26:48;24.30;52.20
27072;DHT22;14613;46.308;25.288;2023-04-25T10:29:22;24.20;52.20
27072;DHT22;14613;46.308;25.288;2023-04-25T10:31:49;24.10;52.10
27072;DHT22;14613;46.308;25.288;2023-04-25T10:34:16;24.20;52.30
27072;DHT22;14613;46.308;25.288;2023-04-25T10:36:42;24.40;52.60
27072;DHT22;14613;46.308;25.288;2023-04-25T10:39:24;24.80;52.70
27072;DHT22;14613;46.308;25.288;2023-04-25T10:42:02;25.20;52.30
27072;DHT22;14613;46.308;25.288;2023-04-25T10:44:32;25.50;51.70
27072;DHT22;14613;46.308;25.288;2023-04-25T10:47:01;25.60;51.20
27072;DHT22;14613;46.308;25.288;2023-04-25T10:49:41;25.70;51.20
27072;DHT22;14613;46.308;25.288;2023-04-25T10:52:15;25.90;51.10
27072;DHT22;14613;46.308;25.288;2023-04-25T10:54:46;26.00;50.80
27072;DHT22;14613;46.308;25.288;2023-04-25T10:57:40;26.10;50.80
27072;DHT22;14613;46.308;25.288;2023-04-25T11:00:14;26.30;50.20
27072;DHT22;14613;46.308;25.288;2023-04-25T11:02:52;26.40;50.30
27072;DHT22;14613;46.308;25.288;2023-04-25T11:05:35;26.70;50.10
27072;DHT22;14613;46.308;25.288;2023-04-25T11:08:02;26.80;49.00
27072;DHT22;14613;46.308;25.288;2023-04-25T11:10:32;26.70;48.70
27072;DHT22;14613;46.308;25.288;2023-04-25T11:13:00;26.70;49.10
27072;DHT22;14613;46.308;25.288;2023-04-25T11:15:27;26.70;49.00
27072;DHT22;14613;46.308;25.288;2023-04-25T11:17:53;27.00;49.00
27072;DHT22;14613;46.308;25.288;2023-04-25T11:20:20;27.30;48.90
27072;DHT22;14613;46.308;25.288;2023-04-25T11:22:47;27.50;48.50
27072;DHT22;14613;46.308;25.288;2023-04-25T11:25:14;27.70;47.80
27072;DHT22;14613;46.308;25.288;2023-04-25T11:27:51;27.80;47.60
27072;DHT22;14613;46.308;25.288;2023-04-25T11:30:17;27.70;47.10
27072;DHT22;14613;46.308;25.288;2023-04-25T11:32:43;27.70;47.40
27072;DHT22;14613;46.308;25.288;2023-04-25T11:35:10;27.80;47.30
27072;DHT22;14613;46.308;25.288;2023-04-25T11:37:38;27.70;46.90
27072;DHT22;14613;46.308;25.288;2023-04-25T11:40:07;27.60;46.70
27072;DHT22;14613;46.308;25.288;2023-04-25T11:42:34;27.50;46.80
27072;DHT22;14613;46.308;25.288;2023-04-25T11:45:00;27.40;46.90
27072;DHT22;14613;46.308;25.288;2023-04-25T11:47:30;27.30;46.90
27072;DHT22;14613;46.308;25.288;2023-04-25T11:49:58;27.20;47.00
27072;DHT22;14613;46.308;25.288;2023-04-25T11:52:41;27.10;47.00
27072;DHT22;14613;46.308;25.288;2023-04-25T11:55:20;27.00;47.30
27072;DHT22;14613;46.308;25.288;2023-04-25T11:57:48;26.90;47.40
27072;DHT22;14613;46.308;25.288;2023-04-25T12:00:17;26.80;47.60
27072;DHT22;14613;46.308;25.288;2023-04-25T12:02:50;26.70;47.70
27072;DHT22;14613;46.308;25.288;2023-04-25T12:05:16;26.70;47.50
27072;DHT22;14613;46.308;25.288;2023-04-25T12:07:42;26.60;47.30
27072;DHT22;14613;46.308;25.288;2023-04-25T12:10:10;26.40;47.40
27072;DHT22;14613;46.308;25.288;2023-04-25T12:12:37;26.30;47.50
27072;DHT22;14613;46.308;25.288;2023-04-25T12:15:17;26.30;47.50
27072;DHT22;14613;46.308;25.288;2023-04-25T12:17:51;26.10;47.50
27072;DHT22;14613;46.308;25.288;2023-04-25T12:20:23;26.00;47.60
27072;DHT22;14613;46.308;25.288;2023-04-25T12:22:50;25.90;47.70
27072;DHT22;14613;46.308;25.288;2023-04-25T12:28:15;25.60;47.80
27072;DHT22;14613;46.308;25.288;2023-04-25T12:31:04;25.30;47.90
27072;DHT22;14613;46.308;25.288;2023-04-25T12:33:34;24.80;48.20
27072;DHT22;14613;46.308;25.288;2023-04-25T12:36:02;24.50;48.60
27072;DHT22;14613;46.308;25.288;2023-04-25T12:38:40;24.10;48.80
27072;DHT22;14613;46.308;25.288;2023-04-25T12:41:07;23.80;49.90
27072;DHT22;14613;46.308;25.288;2023-04-25T12:43:33;23.30;49.50
27072;DHT22;14613;46.308;25.288;2023-04-25T12:45:59;22.90;50.10
27072;DHT22;14613;46.308;25.288;2023-04-25T12:48:24;22.60;50.60
27072;DHT22;14613;46.308;25.288;2023-04-25T12:50:51;22.20;51.20
27072;DHT22;14613;46.308;25.288;2023-04-25T12:53:22;21.90;51.80
27072;DHT22;14613;46.308;25.288;2023-04-25T12:55:49;21.60;52.30
27072;DHT22;14613;46.308;25.288;2023-04-25T12:58:17;21.30;52.70
27072;DHT22;14613;46.308;25.288;2023-04-25T13:00:44;21.10;53.00
27072;DHT22;14613;46.308;25.288;2023-04-25T13:03:10;20.90;53.30
27072;DHT22;14613;46.308;25.288;2023-04-25T13:05:39;20.70;53.40
27072;DHT22;14613;46.308;25.288;2023-04-25T13:08:05;20.60;53.80
27072;DHT22;14613;46.308;25.288;2023-04-25T13:10:31;20.50;53.90
27072;DHT22;14613;46.308;25.288;2023-04-25T13:12:59;20.30;53.90
27072;DHT22;14613;46.308;25.288;2023-04-25T13:15:25;20.20;54.10
27072;DHT22;14613;46.308;25.288;2023-04-25T13:17:50;20.10;54.20
27072;DHT22;14613;46.308;25.288;2023-04-25T13:20:16;20.00;54.10
27072;DHT22;14613;46.308;25.288;2023-04-25T13:22:44;19.90;54.20
27072;DHT22;14613;46.308;25.288;2023-04-25T13:25:11;19.80;54.20
27072;DHT22;14613;46.308;25.288;2023-04-25T13:27:37;19.80;54.30
27072;DHT22;14613;46.308;25.288;2023-04-25T13:30:04;19.80;54.50
27072;DHT22;14613;46.308;25.288;2023-04-25T13:32:36;19.70;54.70
27072;DHT22;14613;46.308;25.288;2023-04-25T13:35:07;19.60;54.90
27072;DHT22;14613;46.308;25.288;2023-04-25T13:37:34;19.40;55.10
27072;DHT22;14613;46.308;25.288;2023-04-25T13:40:01;19.30;55.30
27072;DHT22;14613;46.308;25.288;2023-04-25T13:42:28;19.30;55.50
27072;DHT22;14613;46.308;25.288;2023-04-25T13:44:54;19.30;55.60
27072;DHT22;14613;46.308;25.288;2023-04-25T13:47:19;19.20;55.80
27072;DHT22;14613;46.308;25.288;2023-04-25T13:49:45;19.10;55.80
27072;DHT22;14613;46.308;25.288;2023-04-25T13:52:11;19.00;56.00
27072;DHT22;14613;46.308;25.288;2023-04-25T13:54:37;18.90;56.30
27072;DHT22;14613;46.308;25.288;2023-04-25T13:57:03;18.80;56.70
27072;DHT22;14613;46.308;25.288;2023-04-25T13:59:28;18.60;57.20
27072;DHT22;14613;46.308;25.288;2023-04-25T14:01:54;18.50;57.50
27072;DHT22;14613;46.308;25.288;2023-04-25T14:04:20;18.40;57.90
27072;DHT22;14613;46.308;25.288;2023-04-25T14:06:46;18.40;58.10
27072;DHT22;14613;46.308;25.288;2023-04-25T14:09:12;18.40;58.40
27072;DHT22;14613;46.308;25.288;2023-04-25T14:11:38;18.30;58.60
27072;DHT22;14613;46.308;25.288;2023-04-25T14:14:04;18.30;58.70
27072;DHT22;14613;46.308;25.288;2023-04-25T14:16:30;18.30;58.90
27072;DHT22;14613;46.308;25.288;2023-04-25T14:18:59;18.30;59.00
27072;DHT22;14613;46.308;25.288;2023-04-25T14:21:26;18.30;59.90
27072;DHT22;14613;46.308;25.288;2023-04-25T14:23:52;18.20;59.40
27072;DHT22;14613;46.308;25.288;2023-04-25T14:26:18;18.10;59.70
27072;DHT22;14613;46.308;25.288;2023-04-25T14:28:44;18.10;60.10
27072;DHT22;14613;46.308;25.288;2023-04-25T14:31:10;18.00;60.60
27072;DHT22;14613;46.308;25.288;2023-04-25T14:33:36;18.00;60.90
27072;DHT22;14613;46.308;25.288;2023-04-25T14:36:05;17.90;61.30
27072;DHT22;14613;46.308;25.288;2023-04-25T14:38:31;17.90;61.50
27072;DHT22;14613;46.308;25.288;2023-04-25T14:40:57;17.80;61.80
27072;DHT22;14613;46.308;25.288;2023-04-25T14:43:22;17.80;61.90
27072;DHT22;14613;46.308;25.288;2023-04-25T14:45:48;17.70;62.00
27072;DHT22;14613;46.308;25.288;2023-04-25T14:48:14;17.60;62.10
27072;DHT22;14613;46.308;25.288;2023-04-25T14:50:40;17.50;62.30
27072;DHT22;14613;46.308;25.288;2023-04-25T14:53:06;17.40;62.50
27072;DHT22;14613;46.308;25.288;2023-04-25T14:55:32;17.40;62.70
27072;DHT22;14613;46.308;25.288;2023-04-25T14:57:57;17.30;62.80
27072;DHT22;14613;46.308;25.288;2023-04-25T15:00:23;17.30;63.00
27072;DHT22;14613;46.308;25.288;2023-04-25T15:02:50;17.30;63.10
27072;DHT22;14613;46.308;25.288;2023-04-25T15:05:17;17.20;63.10
27072;DHT22;14613;46.308;25.288;2023-04-25T15:07:43;17.20;63.20
27072;DHT22;14613;46.308;25.288;2023-04-25T15:10:10;17.10;63.30
27072;DHT22;14613;46.308;25.288;2023-04-25T15:12:44;17.10;63.60
27072;DHT22;14613;46.308;25.288;2023-04-25T15:15:10;17.00;63.70
27072;DHT22;14613;46.308;25.288;2023-04-25T15:17:41;17.00;63.90
27072;DHT22;14613;46.308;25.288;2023-04-25T15:20:09;16.90;64.00
27072;DHT22;14613;46.308;25.288;2023-04-25T15:22:36;16.90;64.10
27072;DHT22;14613;46.308;25.288;2023-04-25T15:25:03;16.80;64.10